Time;durP1;ratioP1;P1;durP2;ratioP2;P2;SDS_P1;SDS_P2;PMS_P1;PMS_P2;Temp;Humidity;BMP_temperature;BMP_pressure;BME280_temperature;BME280_humidity;BME280_pressure;Samples;Min_cycle;Max_cycle;Signal;HPM_P1;HPM_P2
2021/05/22 00:00:47;;;;;;;11.85;2.10;;;;;;;11.02;100.00;99653.41;3592880;39;20132;-61
2021/05/22 00:03:13;;;;;;;12.77;2.83;;;;;;;11.05;100.00;99650.38;3598386;39;20056;-63
2021/05/22 00:05:40;;;;;;;13.52;2.50;;;;;;;11.04;100.00;99651.41;3599391;39;20346;-62
2021/05/22 00:08:06;;;;;;;12.15;3.10;;;;;;;11.04;100.00;99631.69;3599058;39;20329;-62
2021/05/22 00:10:32;;;;;;;15.73;2.45;;;;;;;11.08;100.00;99638.41;3600120;39;20087;-63
2021/05/22 00:12:59;;;;;;;10.23;2.33;;;;;;;11.08;100.00;99627.66;3599367;39;20057;-63
2021/05/22 00:15:25;;;;;;;11.68;2.30;;;;;;;11.04;100.00;99631.69;3599489;39;20052;-60
2021/05/22 00:17:51;;;;;;;12.30;2.42;;;;;;;11.03;100.00;99621.94;3599222;39;20036;-62
2021/05/22 00:20:17;;;;;;;12.27;2.15;;;;;;;11.05;100.00;99622.59;3600162;39;20055;-63
2021/05/22 00:22:45;;;;;;;8.27;2.25;;;;;;;11.04;100.00;99621.78;3598749;39;20091;-62
2021/05/22 00:25:13;;;;;;;11.00;1.60;;;;;;;11.04;100.00;99627.16;3599853;39;20039;-61
2021/05/22 00:27:39;;;;;;;12.80;2.47;;;;;;;11.02;100.00;99622.94;3599961;39;20059;-63
2021/05/22 00:30:08;;;;;;;11.50;2.00;;;;;;;10.99;100.00;99617.91;3599609;39;20358;-62
2021/05/22 00:32:35;;;;;;;8.40;2.70;;;;;;;10.97;100.00;99610.00;3600195;39;20056;-62
2021/05/22 00:35:01;;;;;;;6.85;2.35;;;;;;;10.95;100.00;99621.94;3600514;39;20048;-63
2021/05/22 00:37:27;;;;;;;8.18;2.13;;;;;;;10.93;100.00;99621.28;3599770;39;20097;-62
2021/05/22 00:39:53;;;;;;;8.65;1.95;;;;;;;10.86;100.00;99624.66;3600520;39;20440;-62
2021/05/22 00:42:19;;;;;;;12.88;2.10;;;;;;;10.86;100.00;99616.56;3600797;39;20035;-63
2021/05/22 00:45:08;;;;;;;4.93;1.80;;;;;;;10.81;100.00;99605.47;3599564;39;20589;-58
2021/05/22 00:47:34;;;;;;;7.25;1.95;;;;;;;10.78;100.00;99611.19;3599694;39;20311;-62
2021/05/22 00:50:00;;;;;;;10.57;2.05;;;;;;;10.71;100.00;99604.78;3599427;39;20404;-61
2021/05/22 00:52:26;;;;;;;11.25;2.05;;;;;;;10.69;100.00;99606.81;3599881;39;20205;-60
2021/05/22 00:54:53;;;;;;;7.53;1.65;;;;;;;10.63;100.00;99610.16;3600381;39;20143;-60
2021/05/22 00:57:19;;;;;;;6.03;1.58;;;;;;;10.58;100.00;99604.44;3600759;39;20047;-60
2021/05/22 00:59:45;;;;;;;6.32;1.80;;;;;;;10.54;100.00;99603.09;3600330;39;20047;-60
2021/05/22 01:02:20;;;;;;;8.82;1.83;;;;;;;10.59;100.00;99601.59;3599958;39;20459;-61
2021/05/22 01:04:46;;;;;;;7.47;1.52;;;;;;;10.54;100.00;99586.94;3600399;39;20059;-61
2021/05/22 01:07:12;;;;;;;11.00;1.65;;;;;;;10.58;100.00;99599.06;3599875;39;20495;-61
2021/05/22 01:09:39;;;;;;;9.80;1.70;;;;;;;10.55;100.00;99594.03;3600580;39;20088;-62
2021/05/22 01:12:08;;;;;;;8.27;2.30;;;;;;;10.56;100.00;99590.34;3599387;39;20056;-60
2021/05/22 01:14:41;;;;;;;9.98;2.40;;;;;;;10.48;100.00;99585.75;3599453;39;20450;-62
2021/05/22 01:17:08;;;;;;;6.10;1.63;;;;;;;10.49;100.00;99593.66;3599970;39;20131;-62
2021/05/22 01:19:40;;;;;;;9.70;2.40;;;;;;;10.43;100.00;99597.03;3600324;39;20036;-60
2021/05/22 01:22:07;;;;;;;7.15;1.65;;;;;;;10.37;100.00;99602.25;3599862;39;20096;-60
2021/05/22 01:24:42;;;;;;;8.95;2.03;;;;;;;10.21;100.00;99592.25;3599282;39;20059;-62
2021/05/22 01:27:10;;;;;;;9.80;2.00;;;;;;;10.14;100.00;99600.13;3600572;39;20058;-61
2021/05/22 01:29:36;;;;;;;6.93;1.55;;;;;;;10.05;100.00;99593.88;3598923;39;20410;-61
2021/05/22 01:32:03;;;;;;;7.25;2.00;;;;;;;10.04;100.00;99586.84;3599469;39;20046;-61
2021/05/22 01:34:29;;;;;;;7.72;1.90;;;;;;;10.08;100.00;99588.19;3598980;39;20314;-62
2021/05/22 01:36:55;;;;;;;4.55;1.77;;;;;;;10.11;100.00;99585.16;3599572;39;20056;-60
2021/05/22 01:39:21;;;;;;;7.50;1.65;;;;;;;10.09;100.00;99592.56;3600007;39;20075;-61
2021/05/22 01:41:47;;;;;;;7.30;1.58;;;;;;;10.06;100.00;99568.69;3599310;39;20052;-61
2021/05/22 01:44:14;;;;;;;10.05;1.88;;;;;;;10.06;100.00;99581.31;3598178;39;20437;-61
2021/05/22 01:46:42;;;;;;;6.63;1.60;;;;;;;10.10;100.00;99590.72;3599361;39;20036;-61
2021/05/22 01:49:10;;;;;;;8.30;2.05;;;;;;;10.08;100.00;99577.44;3599149;39;20036;-61
2021/05/22 01:51:37;;;;;;;6.00;1.87;;;;;;;10.10;100.00;99579.94;3599534;39;20416;-60
2021/05/22 01:54:04;;;;;;;7.53;2.00;;;;;;;10.12;100.00;99572.59;3599165;39;20285;-61
2021/05/22 01:56:31;;;;;;;5.70;1.55;;;;;;;10.11;100.00;99582.47;3599536;39;20046;-62
2021/05/22 01:58:57;;;;;;;10.18;2.25;;;;;;;10.12;100.00;99575.28;3598360;39;20056;-61
2021/05/22 02:01:25;;;;;;;6.93;1.92;;;;;;;10.12;100.00;99584.16;3599256;39;20070;-61
2021/05/22 02:03:56;;;;;;;3.57;1.50;;;;;;;10.08;100.00;99569.38;3598080;39;20078;-61
2021/05/22 02:06:25;;;;;;;9.18;2.00;;;;;;;10.09;100.00;99573.75;3600036;39;20144;-61
2021/05/22 02:08:55;;;;;;;6.57;1.73;;;;;;;10.09;100.00;99570.22;3599966;39;20036;-62
2021/05/22 02:11:22;;;;;;;10.80;2.03;;;;;;;10.10;100.00;99569.19;3599969;39;20529;-60
2021/05/22 02:13:48;;;;;;;7.65;1.50;;;;;;;10.06;100.00;99567.88;3599315;39;20113;-61
2021/05/22 02:16:17;;;;;;;6.88;1.70;;;;;;;10.05;100.00;99569.69;3599747;39;20032;-61
2021/05/22 02:18:45;;;;;;;7.82;1.70;;;;;;;10.08;100.00;99563.16;3599168;39;20402;-61
2021/05/22 02:21:11;;;;;;;11.77;2.15;;;;;;;10.11;100.00;99560.13;3599395;39;20060;-62
2021/05/22 02:23:44;;;;;;;8.48;1.85;;;;;;;10.07;100.00;99570.41;3598751;39;20056;-62
2021/05/22 02:26:11;;;;;;;7.68;1.80;;;;;;;10.08;100.00;99563.16;3599513;39;20050;-61
2021/05/22 02:28:40;;;;;;;5.20;1.58;;;;;;;10.04;100.00;99569.88;3599292;39;20063;-61
2021/05/22 02:31:07;;;;;;;9.32;1.70;;;;;;;10.04;100.00;99549.22;3599021;39;20170;-61
2021/05/22 02:33:34;;;;;;;11.30;2.00;;;;;;;9.99;100.00;99554.22;3597306;39;20036;-62
2021/05/22 02:36:01;;;;;;;4.90;1.75;;;;;;;9.96;100.00;99554.56;3599547;39;20076;-62
2021/05/22 02:38:30;;;;;;;8.18;1.90;;;;;;;9.95;100.00;99547.50;3599968;39;20114;-61
2021/05/22 02:41:00;;;;;;;7.57;2.28;;;;;;;9.90;100.00;99548.00;3599584;39;21120;-62
2021/05/22 02:43:27;;;;;;;5.13;1.80;;;;;;;9.85;100.00;99544.97;3599221;39;20064;-61
2021/05/22 02:45:55;;;;;;;6.35;1.70;;;;;;;9.85;100.00;99546.81;3600000;39;20051;-63
2021/05/22 02:48:22;;;;;;;10.15;1.95;;;;;;;9.83;100.00;99541.59;3601237;39;20106;-62
2021/05/22 02:50:51;;;;;;;5.10;1.48;;;;;;;9.80;100.00;99552.66;3599693;39;20050;-61
2021/05/22 02:53:21;;;;;;;8.55;1.90;;;;;;;9.71;100.00;99549.13;3600378;39;20048;-62
2021/05/22 02:55:49;;;;;;;7.70;2.22;;;;;;;9.62;100.00;99550.94;3600441;39;20047;-62
2021/05/22 02:58:15;;;;;;;7.78;1.90;;;;;;;9.57;100.00;99529.09;3600620;39;20063;-60
2021/05/22 03:00:42;;;;;;;8.00;2.15;;;;;;;9.54;100.00;99547.38;3600347;39;20537;-61
2021/05/22 03:03:08;;;;;;;7.00;1.80;;;;;;;9.47;100.00;99533.75;3600596;39;20845;-61
2021/05/22 03:05:34;;;;;;;12.00;2.03;;;;;;;9.43;100.00;99541.28;3601627;39;20047;-62
2021/05/22 03:08:01;;;;;;;7.22;1.98;;;;;;;9.34;100.00;99542.25;3601476;39;20050;-62
2021/05/22 03:12:56;;;;;;;9.75;2.42;;;;;;;9.19;100.00;99536.66;3584122;22;20055;-63
2021/05/22 03:15:22;;;;;;;11.38;2.50;;;;;;;9.13;100.00;99537.28;3600345;39;20080;-62
2021/05/22 03:17:48;;;;;;;9.55;2.05;;;;;;;9.14;100.00;99540.81;3600181;39;20036;-64
2021/05/22 03:20:14;;;;;;;4.82;1.85;;;;;;;9.05;100.00;99531.88;3600463;39;20044;-61
2021/05/22 03:22:41;;;;;;;6.13;2.55;;;;;;;8.99;100.00;99529.81;3600248;39;20356;-62
2021/05/22 03:25:07;;;;;;;6.85;2.25;;;;;;;8.97;100.00;99529.97;3598253;39;20421;-63
2021/05/22 03:27:34;;;;;;;8.75;2.75;;;;;;;8.93;100.00;99531.28;3601002;39;20043;-63
2021/05/22 03:30:00;;;;;;;6.88;2.45;;;;;;;8.88;100.00;99526.41;3599226;39;20067;-64
2021/05/22 03:32:26;;;;;;;9.85;3.00;;;;;;;8.90;100.00;99540.50;3594179;39;20063;-63
2021/05/22 03:34:52;;;;;;;5.53;2.67;;;;;;;8.89;100.00;99538.81;3597001;39;20071;-66
2021/05/22 03:37:18;;;;;;;10.27;2.92;;;;;;;8.86;100.00;99527.56;3598952;39;20043;-66
2021/05/22 03:39:46;;;;;;;8.98;3.13;;;;;;;8.85;100.00;99531.22;3599454;39;20430;-63
2021/05/22 03:42:12;;;;;;;6.95;2.85;;;;;;;8.87;100.00;99529.25;3597343;39;20393;-66
2021/05/22 03:44:38;;;;;;;7.18;2.90;;;;;;;8.85;100.00;99521.34;3593849;39;20046;-62
2021/05/22 03:47:05;;;;;;;6.90;3.00;;;;;;;8.86;100.00;99527.56;3586109;39;20088;-62
2021/05/22 03:49:31;;;;;;;8.80;3.30;;;;;;;8.84;100.00;99527.72;3584607;39;20049;-64
2021/05/22 03:51:57;;;;;;;8.32;2.92;;;;;;;8.89;100.00;99529.91;3588479;39;20050;-63
2021/05/22 03:54:23;;;;;;;9.43;3.25;;;;;;;8.85;100.00;99531.22;3595728;39;20032;-64
2021/05/22 03:56:49;;;;;;;9.60;2.92;;;;;;;8.84;100.00;99526.88;3593528;39;20063;-63
2021/05/22 03:59:15;;;;;;;7.75;3.00;;;;;;;8.82;100.00;99526.19;3594390;39;21553;-62
2021/05/22 04:01:41;;;;;;;7.18;3.00;;;;;;;8.82;100.00;99531.53;3596650;39;20279;-63
2021/05/22 04:04:08;;;;;;;10.38;2.75;;;;;;;8.77;100.00;99529.34;3594575;39;20044;-63
2021/05/22 04:06:34;;;;;;;7.15;3.25;;;;;;;8.80;100.00;99533.56;3595243;39;20050;-62
2021/05/22 04:09:00;;;;;;;8.88;3.40;;;;;;;8.75;100.00;99540.22;3595281;39;20093;-62
2021/05/22 04:11:26;;;;;;;7.55;3.28;;;;;;;8.75;100.00;99529.50;3595081;39;20137;-63
2021/05/22 04:13:52;;;;;;;9.75;3.70;;;;;;;8.73;100.00;99515.41;3596540;39;20103;-63
2021/05/22 04:16:18;;;;;;;6.25;3.17;;;;;;;8.70;100.00;99512.19;3594806;39;21732;-65
2021/05/22 04:18:44;;;;;;;7.22;3.00;;;;;;;8.74;100.00;99525.13;3666506;22;20070;-64
2021/05/22 04:21:12;;;;;;;4.80;3.35;;;;;;;8.72;100.00;99532.50;3597524;39;20052;-61
2021/05/22 04:23:38;;;;;;;6.13;2.97;;;;;;;8.72;100.00;99539.72;3599742;39;20087;-63
2021/05/22 04:26:04;;;;;;;9.43;3.80;;;;;;;8.71;100.00;99533.50;3597504;39;20435;-65
2021/05/22 04:28:30;;;;;;;8.93;3.42;;;;;;;8.72;100.00;99545.91;3601114;39;20035;-62
2021/05/22 04:30:56;;;;;;;10.27;4.10;;;;;;;8.71;100.00;99536.16;3602602;39;20051;-64
2021/05/22 04:33:22;;;;;;;10.80;3.70;;;;;;;8.69;100.00;99543.53;3602968;39;20063;-62
2021/05/22 04:35:48;;;;;;;7.68;3.20;;;;;;;8.70;100.00;99539.88;3602657;39;20086;-62
2021/05/22 04:38:15;;;;;;;6.75;3.40;;;;;;;8.73;100.00;99539.56;3602969;39;20063;-63
2021/05/22 04:40:41;;;;;;;10.05;4.10;;;;;;;8.76;100.00;99531.19;3601774;39;20055;-64
2021/05/22 04:43:07;;;;;;;10.70;3.85;;;;;;;8.75;100.00;99542.91;3602620;39;20409;-63
2021/05/22 04:45:34;;;;;;;4.72;3.40;;;;;;;8.85;100.00;99537.44;3599620;39;20138;-65
2021/05/22 04:48:00;;;;;;;9.45;3.78;;;;;;;8.84;100.00;99537.63;3599274;39;20047;-65
2021/05/22 04:50:28;;;;;;;7.03;3.22;;;;;;;8.84;100.00;99548.34;3599011;39;20310;-63
2021/05/22 04:52:54;;;;;;;6.35;3.53;;;;;;;8.84;100.00;99551.03;3600927;39;20650;-63
2021/05/22 04:55:21;;;;;;;9.13;3.78;;;;;;;8.81;100.00;99568.28;3598310;39;20077;-62
2021/05/22 04:57:47;;;;;;;7.53;3.67;;;;;;;8.83;100.00;99552.03;3598470;39;20048;-64
2021/05/22 05:00:14;;;;;;;11.77;4.30;;;;;;;8.82;100.00;99561.06;3599988;39;20493;-62
2021/05/22 05:02:40;;;;;;;10.95;3.80;;;;;;;8.78;100.00;99557.84;3597382;39;20097;-63
2021/05/22 05:05:07;;;;;;;10.82;4.32;;;;;;;8.73;100.00;99558.34;3598969;39;20442;-63
2021/05/22 05:07:33;;;;;;;9.85;3.58;;;;;;;8.79;100.00;99569.41;3598749;39;20112;-63
2021/05/22 05:09:59;;;;;;;8.85;4.03;;;;;;;8.81;100.00;99562.91;3598564;39;20313;-63
2021/05/22 05:12:26;;;;;;;7.20;3.80;;;;;;;8.75;100.00;99576.94;3597770;39;20079;-63
2021/05/22 05:14:52;;;;;;;11.75;4.38;;;;;;;8.77;100.00;99578.50;3598810;39;20078;-63
2021/05/22 05:17:18;;;;;;;11.98;4.40;;;;;;;8.74;100.00;99573.41;3600814;39;20429;-67
2021/05/22 05:19:44;;;;;;;9.40;3.90;;;;;;;8.75;100.00;99585.00;3605365;39;20048;-63
2021/05/22 05:22:10;;;;;;;9.85;4.07;;;;;;;8.68;100.00;99584.75;3656595;22;20394;-64
2021/05/22 05:24:36;;;;;;;8.63;4.75;;;;;;;8.67;100.00;99580.41;3591392;39;20066;-63
2021/05/22 05:27:02;;;;;;;9.40;4.70;;;;;;;8.66;100.00;99589.47;3590654;39;20390;-64
2021/05/22 05:31:56;;;;;;;15.25;5.05;;;;;;;8.70;100.00;99592.66;3639062;22;20060;-65
2021/05/22 05:34:22;;;;;;;14.00;5.40;;;;;;;8.64;100.00;99595.97;3599622;39;20055;-65
2021/05/22 05:36:49;;;;;;;7.97;5.18;;;;;;;8.61;100.00;99594.44;3599949;39;20048;-64
2021/05/22 05:39:15;;;;;;;8.23;5.60;;;;;;;8.63;100.00;99603.19;3600114;39;20132;-63
2021/05/22 05:41:41;;;;;;;8.65;5.78;;;;;;;8.66;100.00;99591.31;3600378;39;20040;-64
2021/05/22 05:44:07;;;;;;;8.48;5.07;;;;;;;8.69;100.00;99607.91;3600131;39;20387;-65
2021/05/22 05:46:33;;;;;;;10.85;5.63;;;;;;;8.72;100.00;99612.97;3600509;39;20052;-64
2021/05/22 05:49:00;;;;;;;9.20;6.00;;;;;;;8.71;100.00;99611.28;3601242;39;20070;-63
2021/05/22 05:51:26;;;;;;;9.35;6.43;;;;;;;8.67;100.00;99609.06;3600611;39;20260;-64
2021/05/22 05:53:52;;;;;;;10.32;6.63;;;;;;;8.72;100.00;99609.47;3600137;39;20089;-63
2021/05/22 05:56:18;;;;;;;12.65;6.72;;;;;;;8.67;100.00;99623.34;3599742;39;20044;-65
2021/05/22 05:58:44;;;;;;;11.32;6.10;;;;;;;8.77;100.00;99615.19;3600824;39;20054;-64
2021/05/22 06:01:13;;;;;;;12.63;6.53;;;;;;;8.72;100.00;99612.97;3600730;39;20326;-65
2021/05/22 06:03:39;;;;;;;10.98;6.57;;;;;;;8.76;100.00;99606.31;3600376;39;20063;-64
2021/05/22 06:06:06;;;;;;;10.05;6.43;;;;;;;8.73;100.00;99611.97;3599809;39;20080;-63
2021/05/22 06:08:32;;;;;;;14.27;7.53;;;;;;;8.69;100.00;99624.00;3599497;39;20048;-64
2021/05/22 06:11:00;;;;;;;11.65;7.07;;;;;;;8.69;100.00;99624.00;3600421;39;20061;-62
2021/05/22 06:13:28;;;;;;;12.18;7.95;;;;;;;8.79;100.00;99618.56;3599361;39;20040;-62
2021/05/22 06:16:11;;;;;;;13.65;7.13;;;;;;;8.85;100.00;99617.94;3600207;39;20068;-64
2021/05/22 06:18:39;;;;;;;11.82;7.00;;;;;;;8.87;100.00;99620.47;3599929;39;20136;-65
2021/05/22 06:21:08;;;;;;;12.02;6.53;;;;;;;8.88;100.00;99627.53;3601007;39;20362;-62
2021/05/22 06:23:34;;;;;;;8.68;6.60;;;;;;;8.90;100.00;99631.72;3601956;39;20042;-63
2021/05/22 06:26:01;;;;;;;8.40;5.70;;;;;;;8.90;100.00;99630.91;3601643;39;20387;-65
2021/05/22 06:28:28;;;;;;;12.13;7.80;;;;;;;8.86;100.00;99640.25;3601267;39;20060;-62
2021/05/22 06:30:55;;;;;;;9.45;7.07;;;;;;;8.92;100.00;99639.63;3600989;39;20047;-63
2021/05/22 06:33:21;;;;;;;14.65;6.38;;;;;;;8.95;100.00;99633.94;3601521;39;21370;-65
2021/05/22 06:35:47;;;;;;;10.20;6.63;;;;;;;9.01;100.00;99636.03;3601047;39;20107;-63
2021/05/22 06:38:14;;;;;;;13.10;7.10;;;;;;;9.03;100.00;99636.69;3601542;39;20085;-65
2021/05/22 06:40:40;;;;;;;9.10;6.32;;;;;;;9.09;100.00;99643.28;3601615;39;20386;-62
2021/05/22 06:43:06;;;;;;;10.63;7.05;;;;;;;9.14;100.00;99653.53;3600372;39;20047;-62
2021/05/22 06:45:39;;;;;;;9.65;6.60;;;;;;;9.23;100.00;99647.22;3598836;39;20049;-62
2021/05/22 06:48:06;;;;;;;9.00;6.40;;;;;;;9.16;100.00;99649.72;3598608;39;20359;-62
2021/05/22 06:50:32;;;;;;;8.65;6.13;;;;;;;9.17;100.00;99647.88;3599428;39;20036;-65
2021/05/22 06:52:58;;;;;;;9.70;6.55;;;;;;;9.17;100.00;99646.03;3598672;39;20055;-63
2021/05/22 06:55:25;;;;;;;10.35;6.70;;;;;;;9.16;100.00;99656.91;3598562;39;20059;-63
2021/05/22 06:57:51;;;;;;;9.00;6.25;;;;;;;9.26;100.00;99654.97;3598786;39;20055;-63
2021/05/22 07:00:18;;;;;;;9.30;6.80;;;;;;;9.35;100.00;99661.22;3598732;39;20083;-64
2021/05/22 07:02:44;;;;;;;10.30;6.40;;;;;;;9.38;100.00;99677.88;3598528;39;20050;-62
2021/05/22 07:05:11;;;;;;;10.27;6.00;;;;;;;9.44;100.00;99663.81;3598856;39;20090;-62
2021/05/22 07:07:39;;;;;;;9.65;5.90;;;;;;;9.46;100.00;99669.88;3598072;39;20631;-63
2021/05/22 07:10:06;;;;;;;7.03;5.40;;;;;;;9.57;100.00;99670.59;3597746;39;20319;-63
2021/05/22 07:12:33;;;;;;;8.77;6.18;;;;;;;9.48;100.00;99677.78;3599504;39;20045;-64
2021/05/22 07:14:59;;;;;;;9.98;6.20;;;;;;;9.51;100.00;99676.63;3599259;39;20059;-65
2021/05/22 07:17:25;;;;;;;8.90;6.03;;;;;;;9.59;100.00;99677.50;3597347;39;20707;-62
2021/05/22 07:19:51;;;;;;;8.38;5.88;;;;;;;9.56;100.00;99690.44;3598841;39;20375;-64
2021/05/22 07:22:17;;;;;;;10.43;6.95;;;;;;;9.59;100.00;99684.75;3598363;39;20100;-63
2021/05/22 07:24:43;;;;;;;9.60;5.50;;;;;;;9.52;100.00;99687.19;3598460;39;20059;-65
2021/05/22 07:27:09;;;;;;;9.98;5.75;;;;;;;9.60;100.00;99689.13;3598197;39;20051;-64
2021/05/22 07:29:35;;;;;;;10.93;5.97;;;;;;;9.64;100.00;99687.78;3598928;39;20075;-63
2021/05/22 07:32:01;;;;;;;7.90;5.50;;;;;;;9.71;100.00;99694.19;3599906;39;20088;-63
2021/05/22 07:34:27;;;;;;;8.00;5.28;;;;;;;9.73;100.00;99702.09;3601840;39;20033;-64
2021/05/22 07:36:53;;;;;;;9.52;5.60;;;;;;;9.68;100.00;99705.28;3600620;39;20593;-63
2021/05/22 07:39:19;;;;;;;11.18;5.88;;;;;;;9.57;100.00;99702.84;3600780;39;20080;-63
2021/05/22 07:41:46;;;;;;;8.68;5.30;;;;;;;9.53;100.00;99701.50;3601280;39;20047;-65
2021/05/22 07:44:13;;;;;;;7.40;4.97;;;;;;;9.62;100.00;99703.22;3601211;39;20051;-63
2021/05/22 07:49:42;;;;;;;8.57;5.88;;;;;;;9.60;100.00;99708.75;3595111;22;20117;-65
2021/05/22 07:52:10;;;;;;;8.10;5.43;;;;;;;9.61;100.00;99723.88;3600247;39;20044;-64
2021/05/22 07:54:36;;;;;;;9.07;5.55;;;;;;;9.66;100.00;99723.41;3601516;39;20044;-64
2021/05/22 07:57:04;;;;;;;7.78;6.03;;;;;;;9.72;100.00;99722.75;3601177;39;20585;-64
2021/05/22 07:59:30;;;;;;;8.38;6.43;;;;;;;9.78;100.00;99727.50;3601066;39;20426;-63
2021/05/22 08:01:56;;;;;;;6.78;5.78;;;;;;;9.86;100.00;99729.38;3601174;39;20040;-63
2021/05/22 08:04:22;;;;;;;9.40;5.70;;;;;;;9.95;100.00;99735.66;3600989;39;20051;-63
2021/05/22 08:06:49;;;;;;;8.73;5.57;;;;;;;9.97;100.00;99742.56;3600654;39;20093;-63
2021/05/22 08:09:15;;;;;;;9.57;6.07;;;;;;;9.89;100.00;99747.03;3600106;39;20091;-65
2021/05/22 08:11:41;;;;;;;8.20;6.07;;;;;;;10.07;100.00;99750.50;3601438;39;20142;-65
2021/05/22 08:14:07;;;;;;;6.43;5.75;;;;;;;9.89;100.00;99766.69;3600555;39;20561;-63
2021/05/22 08:16:34;;;;;;;11.02;6.75;;;;;;;9.70;100.00;99757.03;3601071;39;20044;-62
2021/05/22 08:19:00;;;;;;;8.52;6.88;;;;;;;9.67;100.00;99751.94;3600752;39;20052;-64
2021/05/22 08:21:26;;;;;;;9.55;6.75;;;;;;;9.70;100.00;99751.66;3600851;39;20067;-64
2021/05/22 08:23:53;;;;;;;9.32;6.10;;;;;;;9.67;100.00;99751.94;3600225;39;20036;-64
2021/05/22 08:26:19;;;;;;;9.48;7.28;;;;;;;9.76;100.00;99758.22;3600830;39;20367;-61
2021/05/22 08:28:45;;;;;;;9.10;7.40;;;;;;;9.78;100.00;99758.91;3601834;39;20048;-62
2021/05/22 08:31:11;;;;;;;8.73;6.43;;;;;;;9.78;100.00;99766.97;3599510;39;20079;-63
2021/05/22 08:33:37;;;;;;;9.25;7.05;;;;;;;9.82;100.00;99771.88;3600538;39;20071;-62
2021/05/22 08:36:04;;;;;;;8.38;7.32;;;;;;;9.94;100.00;99777.00;3599718;39;20071;-65
2021/05/22 08:38:30;;;;;;;7.60;6.80;;;;;;;9.92;100.00;99776.28;3601219;39;20044;-63
2021/05/22 08:40:57;;;;;;;7.85;7.00;;;;;;;9.92;100.00;99773.59;3600295;39;20039;-64
2021/05/22 08:43:23;;;;;;;11.98;7.60;;;;;;;9.91;100.00;99771.91;3600343;39;20526;-63
2021/05/22 08:45:50;;;;;;;9.68;7.15;;;;;;;9.87;100.00;99776.75;3600707;39;20201;-63
2021/05/22 08:48:16;;;;;;;10.13;7.10;;;;;;;9.95;100.00;99787.59;3600339;39;20386;-65
2021/05/22 08:50:42;;;;;;;9.25;6.57;;;;;;;10.02;100.00;99790.47;3601057;39;20040;-62
2021/05/22 08:53:08;;;;;;;7.60;6.68;;;;;;;10.19;100.00;99788.72;3600542;39;20127;-63
2021/05/22 08:55:34;;;;;;;7.90;6.57;;;;;;;10.26;100.00;99786.22;3600741;39;20051;-63
2021/05/22 08:58:01;;;;;;;7.47;6.35;;;;;;;10.33;100.00;99796.22;3601168;39;20620;-62
2021/05/22 09:00:28;;;;;;;7.13;5.70;;;;;;;10.58;100.00;99803.56;3599610;39;20051;-63
2021/05/22 09:02:54;;;;;;;7.95;6.22;;;;;;;11.00;100.00;99791.91;3600345;39;20055;-63
2021/05/22 09:05:25;;;;;;;10.98;6.10;;;;;;;11.18;100.00;99795.28;3600821;39;20051;-63
2021/05/22 09:07:53;;;;;;;7.50;5.85;;;;;;;11.32;100.00;99795.63;3600492;39;20049;-63
2021/05/22 09:10:23;;;;;;;6.25;4.70;;;;;;;11.21;100.00;99805.72;3600222;39;20048;-62
2021/05/22 09:12:52;;;;;;;5.13;4.30;;;;;;;11.20;100.00;99803.19;3601596;39;20152;-62
2021/05/22 09:15:21;;;;;;;4.93;4.43;;;;;;;11.07;100.00;99803.72;3601368;39;20116;-64
2021/05/22 09:17:50;;;;;;;6.43;4.40;;;;;;;11.08;100.00;99813.44;3601448;39;20423;-64
2021/05/22 09:20:18;;;;;;;;;;;;;;;10.97;100.00;99813.78;3601489;39;20152;-62
2021/05/22 09:22:54;;;;;;;7.85;5.50;;;;;;;10.83;100.00;99810.69;3601440;39;19943;-63
2021/05/22 09:25:20;;;;;;;5.72;5.15;;;;;;;10.75;100.00;99823.28;3600195;39;20044;-63
2021/05/22 09:27:46;;;;;;;7.47;5.47;;;;;;;10.84;100.00;99817.75;3601170;39;20141;-65
2021/05/22 09:30:14;;;;;;;8.32;5.90;;;;;;;10.72;100.00;99815.53;3600445;39;20082;-62
2021/05/22 09:32:41;;;;;;;7.18;6.13;;;;;;;10.84;100.00;99816.94;3600519;39;20043;-63
2021/05/22 09:35:10;;;;;;;10.45;5.70;;;;;;;10.83;100.00;99812.53;3600142;39;20301;-62
2021/05/22 09:37:43;;;;;;;8.05;5.82;;;;;;;10.71;100.00;99820.06;3600724;39;20437;-62
2021/05/22 09:40:10;;;;;;;7.07;5.25;;;;;;;10.65;100.00;99824.25;3599650;39;20126;-62
2021/05/22 09:42:39;;;;;;;9.00;6.38;;;;;;;10.58;100.00;99836.66;3600614;39;20498;-62
2021/05/22 09:45:20;;;;;;;;;;;;;;;10.77;100.00;99832.06;3601443;39;20048;-62
2021/05/22 09:47:47;;;;;;;6.90;6.18;;;;;;;10.96;100.00;99847.09;3600798;39;20000;-64
2021/05/22 09:50:25;;;;;;;6.93;5.65;;;;;;;10.91;100.00;99844.03;3600644;39;20088;-64
2021/05/22 09:52:52;;;;;;;9.00;6.25;;;;;;;10.79;100.00;99854.25;3601544;39;20048;-63
2021/05/22 09:55:19;;;;;;;8.68;6.93;;;;;;;10.60;100.00;99849.97;3600620;39;20084;-63
2021/05/22 09:57:45;;;;;;;7.88;6.88;;;;;;;10.75;100.00;99858.25;3602823;39;20142;-64
2021/05/22 10:00:15;;;;;;;8.05;7.25;;;;;;;10.74;100.00;99857.44;3602475;39;20391;-64
2021/05/22 10:02:43;;;;;;;9.27;6.63;;;;;;;10.86;100.00;99860.66;3594021;39;20425;-63
2021/05/22 10:05:15;;;;;;;7.15;5.30;;;;;;;10.81;100.00;99863.84;3601219;39;20047;-63
2021/05/22 10:07:41;;;;;;;5.53;4.95;;;;;;;10.85;100.00;99873.31;3603009;39;20055;-63
2021/05/22 10:10:08;;;;;;;5.65;4.60;;;;;;;10.80;100.00;99877.47;3601652;39;20047;-65
2021/05/22 10:12:36;;;;;;;7.55;4.78;;;;;;;10.65;100.00;99875.38;3601493;39;20032;-65
2021/05/22 10:15:03;;;;;;;6.90;5.83;;;;;;;10.65;100.00;99886.16;3602711;39;20048;-63
2021/05/22 10:17:29;;;;;;;8.55;5.70;;;;;;;10.62;100.00;99904.47;3601469;39;20440;-63
2021/05/22 10:19:56;;;;;;;7.75;6.15;;;;;;;10.54;100.00;99899.91;3601812;39;20060;-63
2021/05/22 10:22:23;;;;;;;11.63;6.70;;;;;;;10.55;100.00;99896.19;3602783;39;20063;-64
2021/05/22 10:24:53;;;;;;;7.53;5.25;;;;;;;10.55;100.00;99914.19;3601694;39;20032;-64
2021/05/22 10:27:20;;;;;;;9.70;6.60;;;;;;;10.70;100.00;99926.03;3600532;39;20063;-62
2021/05/22 10:29:46;;;;;;;7.30;5.47;;;;;;;10.90;100.00;99932.03;3601198;39;20055;-63
2021/05/22 10:32:18;;;;;;;4.55;3.78;;;;;;;10.97;100.00;99926.88;3599394;39;20056;-62
2021/05/22 10:34:45;;;;;;;6.40;3.40;;;;;;;11.14;100.00;99938.53;3599921;39;20106;-65
2021/05/22 10:37:11;;;;;;;4.50;3.28;;;;;;;11.31;100.00;99940.28;3599340;39;20510;-63
2021/05/22 10:39:40;;;;;;;4.40;2.70;;;;;;;11.40;100.00;99946.53;3599575;39;20052;-61
2021/05/22 10:42:07;;;;;;;;;;;;;;;11.52;100.00;99941.69;3599494;39;20091;-63
2021/05/22 10:44:37;;;;;;;3.90;2.72;;;;;;;12.08;100.00;99952.72;3599287;39;19935;-64
2021/05/22 10:47:09;;;;;;;4.38;2.58;;;;;;;12.31;100.00;99955.59;3599471;39;20330;-61
2021/05/22 10:49:51;;;;;;;5.05;2.35;;;;;;;12.39;100.00;99958.28;3599918;39;20317;-61
2021/05/22 10:52:18;;;;;;;3.60;2.10;;;;;;;12.60;100.00;99957.75;3600524;39;20055;-63
2021/05/22 10:55:02;;;;;;;5.75;2.55;;;;;;;12.74;100.00;99966.16;3600539;39;20044;-63
2021/05/22 10:57:28;;;;;;;3.80;2.42;;;;;;;12.71;100.00;99958.41;3600609;39;20042;-63
2021/05/22 11:00:20;;;;;;;7.22;2.70;;;;;;;12.74;100.00;99974.25;3600026;39;20332;-63
2021/05/22 11:02:49;;;;;;;3.08;1.92;;;;;;;12.64;100.00;99979.00;3600914;39;20039;-64
2021/05/22 11:05:37;;;;;;;4.10;2.67;;;;;;;12.38;100.00;99975.50;3599813;39;20080;-63
2021/05/22 11:08:29;;;;;;;4.45;2.53;;;;;;;12.79;100.00;99983.53;3599795;39;20062;-64
2021/05/22 11:11:00;;;;;;;5.10;2.80;;;;;;;12.27;100.00;99984.75;3601712;39;20055;-63
2021/05/22 11:13:37;;;;;;;5.20;2.50;;;;;;;12.25;100.00;99988.66;3600333;39;20310;-63
2021/05/22 11:16:06;;;;;;;4.95;2.92;;;;;;;12.11;100.00;100003.63;3600317;39;20116;-62
2021/05/22 11:19:01;;;;;;;5.93;2.85;;;;;;;12.24;100.00;100005.84;3601388;39;20305;-63
2021/05/22 11:21:28;;;;;;;6.10;3.25;;;;;;;11.94;100.00;100010.88;3599176;39;20055;-63
2021/05/22 11:24:11;;;;;;;7.25;3.25;;;;;;;11.81;100.00;100013.19;3600773;39;20062;-64
2021/05/22 11:26:53;;;;;;;6.50;3.25;;;;;;;11.53;100.00;100019.66;3596874;39;20057;-63
2021/05/22 11:29:20;;;;;;;4.53;3.13;;;;;;;11.51;100.00;100024.38;3595027;39;22044;-62
2021/05/22 11:31:46;;;;;;;6.90;3.28;;;;;;;11.34;100.00;100023.47;3599414;39;20145;-62
2021/05/22 11:34:31;;;;;;;6.10;3.30;;;;;;;11.55;100.00;100032.97;3598822;39;20424;-62
2021/05/22 11:37:31;;;;;;;7.18;3.47;;;;;;;11.56;100.00;100043.59;3599520;39;20071;-63
2021/05/22 11:39:57;;;;;;;7.80;3.40;;;;;;;11.77;100.00;100052.25;3600721;39;20050;-62